Time;durP1;ratioP1;P1;durP2;ratioP2;P2;SDS_P1;SDS_P2;PMS_P1;PMS_P2;Temp;Humidity;BMP_temperature;BMP_pressure;BME280_temperature;BME280_humidity;BME280_pressure;Samples;Min_cycle;Max_cycle;Signal;HPM_P1;HPM_P2
2023/08/23 05:10:53;;;;;;;;;;;;;;;29.26;56.97;97090.22;4210526;27;10214;-76
2023/08/23 05:13:00;;;;;;;;;;;;;;;29.53;56.39;97092.06;4208875;28;5711;-73
2023/08/23 05:15:07;;;;;;;;;;;;;;;29.72;55.69;97084.53;4198695;28;5643;-74
2023/08/23 05:17:12;;;;;;;;;;;;;;;29.91;55.36;97097.19;4212405;28;6344;-75
2023/08/23 05:19:17;;;;;;;;;;;;;;;30.04;54.91;97088.94;4196538;28;5650;-74
2023/08/23 05:21:20;;;;;;;;;;;;;;;30.14;54.29;97090.63;4197906;28;5723;-75
2023/08/23 05:23:26;;;;;;;;;;;;;;;30.23;54.23;97093.38;4205248;28;5624;-75
2023/08/23 05:25:32;;;;;;;;;;;;;;;30.32;53.84;97088.78;4206254;28;5959;-75
2023/08/23 05:27:39;;;;;;;;;;;;;;;30.38;53.17;97101.19;4214280;28;5667;-74
2023/08/23 05:29:45;;;;;;;;;;;;;;;30.42;53.20;97104.88;4212575;28;5821;-73
2023/08/23 05:31:50;;;;;;;;;;;;;;;30.45;52.98;97106.97;4208533;28;6861;-73
2023/08/23 05:33:53;;;;;;;;;;;;;;;30.50;52.59;97109.56;4210887;28;5648;-73
2023/08/23 05:35:58;;;;;;;;;;;;;;;30.52;52.21;97112.78;4205745;28;5623;-74
2023/08/23 05:38:04;;;;;;;;;;;;;;;30.56;52.06;97102.03;4213436;28;7776;-73
2023/08/23 05:40:11;;;;;;;;;;;;;;;30.58;52.34;97111.53;4202915;28;5650;-74
2023/08/23 05:42:16;;;;;;;;;;;;;;;30.62;52.01;97107.06;4206181;28;5930;-73
2023/08/23 05:44:22;;;;;;;;;;;;;;;30.64;51.78;97107.56;4197662;28;5716;-74
2023/08/23 05:46:25;;;;;;;;;;;;;;;30.65;51.85;97105.66;4197095;28;5933;-74
2023/08/23 05:48:34;;;;;;;;;;;;;;;30.67;51.99;97106.13;4201961;28;5624;-74
2023/08/23 05:50:40;;;;;;;;;;;;;;;30.67;51.69;97098.75;4213918;28;5627;-74
2023/08/23 05:52:46;;;;;;;;;;;;;;;30.69;51.64;97107.44;4205795;28;5648;-74
2023/08/23 05:54:51;;;;;;;;;;;;;;;30.71;51.50;97116.13;4198332;28;5744;-73
2023/08/23 05:56:59;;;;;;;;;;;;;;;30.73;52.03;97109.53;4197390;28;5587;-74
2023/08/23 05:59:02;;;;;;;;;;;;;;;30.74;51.75;97113.88;4206241;28;5731;-73
2023/08/23 06:01:08;;;;;;;;;;;;;;;30.76;51.72;97114.34;4195529;28;5762;-74
2023/08/23 06:03:15;;;;;;;;;;;;;;;30.77;51.03;97118.69;4204218;28;6428;-74
2023/08/23 06:05:21;;;;;;;;;;;;;;;30.77;51.19;97124.97;4205078;28;5727;-74
2023/08/23 06:07:26;;;;;;;;;;;;;;;30.79;51.36;97122.72;4209434;28;5754;-73
2023/08/23 06:09:32;;;;;;;;;;;;;;;30.81;51.21;97120.50;4204815;28;5636;-74
2023/08/23 06:11:38;;;;;;;;;;;;;;;30.84;51.53;97129.97;4195043;28;5643;-74
2023/08/23 06:13:43;;;;;;;;;;;;;;;30.87;51.15;97123.88;4195870;28;5659;-74
2023/08/23 06:15:48;;;;;;;;;;;;;;;30.89;51.10;97125.16;4192815;28;5627;-74
2023/08/23 06:17:54;;;;;;;;;;;;;;;30.91;51.00;97119.38;4194125;28;5627;-73
2023/08/23 06:19:59;;;;;;;;;;;;;;;30.93;50.78;97128.09;4194129;28;5665;-73
2023/08/23 06:22:02;;;;;;;;;;;;;;;30.95;50.73;97128.56;4193397;28;5635;-74
2023/08/23 06:24:07;;;;;;;;;;;;;;;30.97;50.65;97138.03;4193193;28;5648;-74
2023/08/23 06:26:10;;;;;;;;;;;;;;;30.97;50.24;97129.84;4193717;28;5637;-73
2023/08/23 06:28:15;;;;;;;;;;;;;;;30.98;50.43;97130.66;4188351;28;5716;-73
2023/08/23 06:30:17;;;;;;;;;;;;;;;30.99;50.46;97132.25;4193092;28;5641;-73
2023/08/23 06:32:25;;;;;;;;;;;;;;;31.00;50.35;97131.13;4198755;28;5813;-73
2023/08/23 06:34:30;;;;;;;;;;;;;;;31.00;50.12;97139.31;4189637;28;5712;-73
2023/08/23 06:36:34;;;;;;;;;;;;;;;31.02;50.22;97131.63;4201855;28;5653;-73
2023/08/23 06:38:37;;;;;;;;;;;;;;;31.04;49.97;97143.03;4202124;28;5638;-73
2023/08/23 06:40:42;;;;;;;;;;;;;;;31.02;50.14;97137.88;4193681;28;5756;-73
2023/08/23 06:42:45;;;;;;;;;;;;;;;31.04;50.08;97144.97;4201953;28;5719;-73
2023/08/23 06:44:48;;;;;;;;;;;;;;;31.06;50.37;97143.53;4193935;28;5814;-74
2023/08/23 06:46:51;;;;;;;;;;;;;;;31.08;50.34;97140.47;4191467;28;5707;-74
2023/08/23 06:48:54;;;;;;;;;;;;;;;31.08;50.03;97135.81;4188546;28;5727;-74
2023/08/23 06:51:01;;;;;;;;;;;;;;;31.09;49.60;97137.44;4193605;28;5748;-73
2023/08/23 06:53:05;;;;;;;;;;;;;;;31.11;49.88;97142.56;4190780;28;5881;-73
2023/08/23 06:55:09;;;;;;;;;;;;;;;31.09;49.79;97137.44;4190700;28;5761;-73
2023/08/23 06:57:12;;;;;;;;;;;;;;;31.11;49.74;97137.91;4194685;28;5831;-74
2023/08/23 06:59:15;;;;;;;;;;;;;;;31.09;49.50;97137.44;4193774;28;5787;-74
2023/08/23 07:01:18;;;;;;;;;;;;;;;31.08;49.76;97141.28;4193237;28;5720;-74
2023/08/23 07:03:21;;;;;;;;;;;;;;;31.07;49.58;97139.69;4189031;28;6741;-74
2023/08/23 07:05:24;;;;;;;;;;;;;;;31.08;49.86;97144.00;4199333;28;5770;-74
2023/08/23 07:07:28;;;;;;;;;;;;;;;31.09;49.63;97136.63;4193546;28;5703;-73
2023/08/23 07:09:31;;;;;;;;;;;;;;;31.10;49.93;97140.97;4188427;28;5700;-73
2023/08/23 07:11:34;;;;;;;;;;;;;;;31.10;49.67;97133.56;4193088;28;5882;-74
2023/08/23 07:13:38;;;;;;;;;;;;;;;31.12;49.77;97135.97;4192101;28;5830;-65
2023/08/23 07:15:41;;;;;;;;;;;;;;;31.12;50.01;97144.97;4192936;28;5663;-66
2023/08/23 07:17:44;;;;;;;;;;;;;;;31.10;50.01;97139.03;4195454;28;5829;-66
2023/08/23 07:19:48;;;;;;;;;;;;;;;31.10;49.89;97144.50;4200774;28;5642;-79
2023/08/23 07:21:51;;;;;;;;;;;;;;;31.10;49.97;97132.78;4187199;28;5855;-78
2023/08/23 07:23:55;;;;;;;;;;;;;;;31.10;49.74;97143.69;4177247;28;6581;-79
2023/08/23 07:25:58;;;;;;;;;;;;;;;31.08;49.45;97146.75;4185324;28;5737;-78
2023/08/23 07:28:01;;;;;;;;;;;;;;;31.08;49.88;97148.66;4193215;28;5666;-78
2023/08/23 07:30:05;;;;;;;;;;;;;;;31.09;49.38;97150.28;4180640;28;5647;-77
2023/08/23 07:32:08;;;;;;;;;;;;;;;31.09;49.47;97142.88;4193461;28;6181;-78
2023/08/23 07:34:11;;;;;;;;;;;;;;;31.10;49.20;97147.22;4193631;28;5642;-78
2023/08/23 07:36:14;;;;;;;;;;;;;;;31.10;49.12;97149.16;4193003;28;6347;-78
2023/08/23 07:38:17;;;;;;;;;;;;;;;31.09;48.85;97159.28;4193165;28;5635;-78
2023/08/23 07:40:21;;;;;;;;;;;;;;;31.12;49.13;97158.63;4192762;28;5634;-78
2023/08/23 07:42:25;;;;;;;;;;;;;;;31.15;49.11;97157.22;4196856;28;5624;-79
2023/08/23 07:44:27;;;;;;;;;;;;;;;31.15;48.34;97152.56;4192332;28;5744;-78
2023/08/23 07:46:30;;;;;;;;;;;;;;;31.14;48.38;97148.19;4200881;28;5125;-78
2023/08/23 07:48:33;;;;;;;;;;;;;;;31.16;48.57;97153.34;4196262;28;5724;-84
2023/08/23 07:50:36;;;;;;;;;;;;;;;31.17;48.35;97163.97;4197215;28;5763;-69
2023/08/23 07:52:38;;;;;;;;;;;;;;;31.19;48.28;97164.47;4192899;28;5640;-69
2023/08/23 07:54:41;;;;;;;;;;;;;;;31.18;48.61;97162.03;4193077;28;5623;-69
2023/08/23 07:56:45;;;;;;;;;;;;;;;31.16;48.17;97164.28;4192701;28;5632;-69
2023/08/23 07:58:47;;;;;;;;;;;;;;;31.13;48.55;97165.69;4192454;28;5624;-69
2023/08/23 08:00:51;;;;;;;;;;;;;;;31.15;48.32;97163.47;4201018;28;5652;-69
2023/08/23 08:02:54;;;;;;;;;;;;;;;31.14;48.72;97161.84;4192730;28;5656;-69
2023/08/23 08:04:57;;;;;;;;;;;;;;;31.15;48.44;97168.94;4201183;28;5635;-69
2023/08/23 08:07:03;;;;;;;;;;;;;;;31.17;48.83;97166.69;4201419;28;5750;-68
2023/08/23 08:09:05;;;;;;;;;;;;;;;31.16;48.40;97165.09;4191043;28;5884;-69
2023/08/23 08:11:08;;;;;;;;;;;;;;;31.14;48.55;97166.50;4186052;28;5631;-70
2023/08/23 08:13:12;;;;;;;;;;;;;;;31.13;48.43;97168.44;4201115;28;5620;-69
2023/08/23 08:15:16;;;;;;;;;;;;;;;31.11;48.36;97173.41;4189814;28;5941;-69
2023/08/23 08:17:19;;;;;;;;;;;;;;;31.12;48.72;97172.28;4187601;28;5615;-69
2023/08/23 08:19:22;;;;;;;;;;;;;;;31.14;48.61;97172.75;4201076;28;5632;-68
2023/08/23 08:21:25;;;;;;;;;;;;;;;31.14;48.55;97167.31;4192224;28;5125;-69
2023/08/23 08:23:28;;;;;;;;;;;;;;;31.12;48.68;97169.56;4195652;28;5555;-68
2023/08/23 08:25:31;;;;;;;;;;;;;;;31.10;48.64;97171.00;4197469;28;5632;-76
2023/08/23 08:27:34;;;;;;;;;;;;;;;31.09;48.29;97175.66;4196903;28;5632;-67
2023/08/23 08:29:38;;;;;;;;;;;;;;;31.10;48.43;97177.25;4192144;28;5093;-66
2023/08/23 08:31:41;;;;;;;;;;;;;;;31.12;48.19;97168.75;4185947;28;5692;-66
2023/08/23 08:33:43;;;;;;;;;;;;;;;31.12;48.48;97171.47;4198262;28;5628;-65
2023/08/23 08:35:46;;;;;;;;;;;;;;;31.13;48.17;97173.09;4200358;28;5449;-65
2023/08/23 08:37:49;;;;;;;;;;;;;;;31.13;48.17;97164.91;4192441;28;5629;-66
2023/08/23 08:39:52;;;;;;;;;;;;;;;31.15;48.33;97163.47;4192889;28;5752;-65
2023/08/23 08:41:55;;;;;;;;;;;;;;;31.15;48.16;97163.47;4191756;28;5115;-66
2023/08/23 08:43:59;;;;;;;;;;;;;;;31.16;48.29;97167.00;4192502;28;5247;-66
2023/08/23 08:46:06;;;;;;;;;;;;;;;31.19;48.05;97163.63;4184390;28;5716;-66
2023/08/23 08:48:09;;;;;;;;;;;;;;;31.21;48.06;97164.97;4192280;28;5921;-65
2023/08/23 08:50:12;;;;;;;;;;;;;;;31.22;47.78;97163.03;4185665;28;5716;-66
2023/08/23 08:52:16;;;;;;;;;;;;;;;31.21;48.12;97154.03;4189270;28;5720;-66
2023/08/23 08:54:20;;;;;;;;;;;;;;;31.23;47.81;97159.97;4186872;28;5723;-67
2023/08/23 08:56:23;;;;;;;;;;;;;;;31.25;47.39;97160.47;4196808;28;6436;-66
2023/08/23 08:58:30;;;;;;;;;;;;;;;31.23;47.68;97149.06;4188890;28;5774;-66
2023/08/23 09:00:35;;;;;;;;;;;;;;;31.22;47.52;97150.19;4200256;28;5722;-66
2023/08/23 09:02:42;;;;;;;;;;;;;;;31.22;47.24;97152.91;4186273;28;5983;-66
2023/08/23 09:04:47;;;;;;;;;;;;;;;31.23;47.00;97154.50;4197867;28;5743;-66
2023/08/23 09:06:50;;;;;;;;;;;;;;;31.24;46.93;97149.84;4194022;28;5654;-66
2023/08/23 09:08:54;;;;;;;;;;;;;;;31.25;46.66;97141.34;4199256;28;5633;-66
2023/08/23 09:10:57;;;;;;;;;;;;;;;31.29;46.49;97147.00;4191878;28;5651;-66
2023/08/23 09:12:59;;;;;;;;;;;;;;;31.28;46.93;97146.19;4196784;28;5612;-66
2023/08/23 09:15:04;;;;;;;;;;;;;;;31.31;46.90;97152.13;4184712;28;5688;-66
2023/08/23 09:17:07;;;;;;;;;;;;;;;31.31;46.31;97138.47;4197746;28;5621;-66
2023/08/23 09:19:12;;;;;;;;;;;;;;;31.32;46.27;97151.00;4194960;28;5632;-66
2023/08/23 09:21:15;;;;;;;;;;;;;;;31.33;46.42;97141.69;4189937;28;5704;-66
2023/08/23 09:23:18;;;;;;;;;;;;;;;31.34;46.35;97143.28;4186135;28;5653;-66
2023/08/23 09:25:21;;;;;;;;;;;;;;;31.36;45.96;97146.50;4194837;28;6334;-67
2023/08/23 09:27:24;;;;;;;;;;;;;;;31.35;45.28;97133.97;4200158;28;5636;-67
2023/08/23 09:29:39;;;;;;;;;;;;;;;31.34;45.47;97143.28;4196819;28;5678;-66
2023/08/23 09:31:42;;;;;;;;;;;;;;;31.36;45.39;97139.09;4198170;28;5744;-67
2023/08/23 09:33:46;;;;;;;;;;;;;;;31.37;45.24;97137.97;4199120;28;5722;-67
2023/08/23 09:35:49;;;;;;;;;;;;;;;31.37;45.58;97135.25;4191431;28;6433;-67
2023/08/23 09:37:52;;;;;;;;;;;;;;;31.38;45.00;97133.34;4193822;28;5636;-66
2023/08/23 09:39:55;;;;;;;;;;;;;;;31.39;45.10;97124.03;4193608;28;5640;-66
2023/08/23 09:42:04;;;;;;;;;;;;;;;31.42;45.45;97128.84;4203356;28;5613;-66
2023/08/23 09:44:07;;;;;;;;;;;;;;;31.45;45.22;97123.53;4200908;28;6629;-67
2023/08/23 09:46:11;;;;;;;;;;;;;;;31.47;45.08;97125.94;4202852;28;5612;-67
2023/08/23 09:48:17;;;;;;;;;;;;;;;31.50;45.44;97130.78;4200037;28;5699;-67
2023/08/23 09:50:23;;;;;;;;;;;;;;;31.50;45.62;97131.59;4200328;28;5700;-67
2023/08/23 09:52:31;;;;;;;;;;;;;;;31.50;45.57;97131.59;4185125;28;5708;-67
2023/08/23 09:54:41;;;;;;;;;;;;;;;31.53;45.37;97125.47;4192915;28;5796;-67
2023/08/23 09:57:00;;;;;;;;;;;;;;;31.55;45.58;97125.16;4195851;28;5635;-66
2023/08/23 09:59:03;;;;;;;;;;;;;;;31.56;45.67;97126.75;4190170;28;5753;-65
2023/08/23 10:01:06;;;;;;;;;;;;;;;31.58;45.91;97124.50;4202624;28;5719;-67
2023/08/23 10:03:09;;;;;;;;;;;;;;;31.60;45.86;97127.75;4202699;28;5632;-66
2023/08/23 10:05:12;;;;;;;;;;;;;;;31.61;45.66;97123.88;4202167;28;5727;-67
2023/08/23 10:07:16;;;;;;;;;;;;;;;31.62;45.89;97122.75;4191480;28;5891;-66
2023/08/23 10:09:22;;;;;;;;;;;;;;;31.64;45.49;97115.03;4185840;28;5810;-66
2023/08/23 10:11:26;;;;;;;;;;;;;;;31.66;45.57;97112.78;4185929;28;5716;-66
2023/08/23 10:13:35;;;;;;;;;;;;;;;31.68;45.66;97115.19;4194518;28;5715;-66
2023/08/23 10:15:40;;;;;;;;;;;;;;;31.68;45.62;97101.53;4202382;28;5624;-67
2023/08/23 10:17:47;;;;;;;;;;;;;;;31.70;45.92;97102.00;4202629;28;5636;-67
2023/08/23 10:19:52;;;;;;;;;;;;;;;31.72;45.55;97103.31;4200760;28;6442;-67
2023/08/23 10:21:55;;;;;;;;;;;;;;;31.75;45.86;97104.63;4187503;28;5712;-67
2023/08/23 10:23:58;;;;;;;;;;;;;;;31.76;45.91;97101.56;4193572;28;5541;-67
2023/08/23 10:26:02;;;;;;;;;;;;;;;31.77;45.82;97097.69;4193505;28;5702;-67
2023/08/23 10:28:06;;;;;;;;;;;;;;;31.77;45.44;97092.22;4200639;28;5632;-67
2023/08/23 10:30:10;;;;;;;;;;;;;;;31.78;45.64;97090.31;4195692;28;5727;-67
2023/08/23 10:32:23;;;;;;;;;;;;;;;31.81;45.85;97098.66;4190659;28;5915;-70
2023/08/23 10:34:27;;;;;;;;;;;;;;;31.82;45.27;97091.25;4191114;28;5696;-70
2023/08/23 10:36:31;;;;;;;;;;;;;;;31.83;45.66;97092.88;4203163;28;5747;-70
2023/08/23 10:38:35;;;;;;;;;;;;;;;31.84;45.67;97095.28;4191503;28;5703;-70
2023/08/23 10:40:41;;;;;;;;;;;;;;;31.84;45.54;97080.81;4200515;28;5627;-69
2023/08/23 10:42:45;;;;;;;;;;;;;;;31.85;45.10;97083.22;4199083;28;5651;-69
2023/08/23 10:44:54;;;;;;;;;;;;;;;31.90;45.37;97075.97;4197174;28;5723;-68
2023/08/23 10:46:58;;;;;;;;;;;;;;;31.92;45.24;97076.44;4199150;28;5707;-70
2023/08/23 10:49:02;;;;;;;;;;;;;;;31.91;44.74;97075.66;4194695;28;6417;-70
2023/08/23 10:51:08;;;;;;;;;;;;;;;31.92;45.08;97074.50;4194691;28;5749;-70
2023/08/23 10:53:10;;;;;;;;;;;;;;;31.94;44.86;97068.72;4194214;28;5756;-70
2023/08/23 11:02:17;;;;;;;;;;;;;;;31.95;44.96;97059.41;4192757;28;5708;-70
2023/08/23 11:04:20;;;;;;;;;;;;;;;31.95;44.92;97064.88;4189321;28;5921;-69
2023/08/23 11:06:23;;;;;;;;;;;;;;;31.95;44.57;97057.50;4192484;28;5095;-70
2023/08/23 11:08:26;;;;;;;;;;;;;;;31.97;44.92;97059.88;4199612;28;5738;-70
2023/08/23 11:10:29;;;;;;;;;;;;;;;31.97;44.51;97063.44;4197269;28;5616;-71
2023/08/23 11:12:32;;;;;;;;;;;;;;;31.98;43.92;97056.03;4196776;28;5635;-72
2023/08/23 11:14:34;;;;;;;;;;;;;;;31.96;43.99;97061.81;4200710;28;5621;-71
2023/08/23 11:16:39;;;;;;;;;;;;;;;31.99;43.19;97063.91;4200731;28;5850;-70
2023/08/23 11:18:43;;;;;;;;;;;;;;;32.02;43.44;97054.25;4193535;28;7684;-70
2023/08/23 11:20:47;;;;;;;;;;;;;;;32.02;42.78;97046.84;4188846;28;5824;-70
2023/08/23 11:22:49;;;;;;;;;;;;;;;32.06;42.55;97049.75;4193541;28;5642;-69
2023/08/23 11:24:53;;;;;;;;;;;;;;;32.07;42.63;97040.41;4201713;28;5620;-73
2023/08/23 11:26:56;;;;;;;;;;;;;;;32.09;42.04;97046.34;4199667;28;6614;-71
2023/08/23 11:29:00;;;;;;;;;;;;;;;32.10;42.07;97043.28;4166894;28;5729;-71
2023/08/23 11:31:06;;;;;;;;;;;;;;;32.13;42.08;97041.81;4195608;28;5734;-71
2023/08/23 11:33:11;;;;;;;;;;;;;;;32.16;41.50;97043.91;4201441;28;5694;-70
2023/08/23 11:35:14;;;;;;;;;;;;;;;32.18;41.80;97035.38;4197264;28;5679;-70
2023/08/23 11:37:18;;;;;;;;;;;;;;;32.18;41.20;97036.19;4193188;28;5650;-72
2023/08/23 11:39:21;;;;;;;;;;;;;;;32.19;40.68;97032.31;4192599;28;5639;-72
2023/08/23 11:41:32;;;;;;;;;;;;;;;32.21;40.20;97035.53;4197184;28;5782;-72
2023/08/23 11:43:36;;;;;;;;;;;;;;;32.26;40.64;97031.78;4194893;28;5833;-73
2023/08/23 11:45:39;;;;;;;;;;;;;;;32.26;40.71;97032.59;4194389;28;5804;-73
2023/08/23 11:47:42;;;;;;;;;;;;;;;32.28;40.32;97024.91;4202078;28;5699;-74
2023/08/23 11:49:48;;;;;;;;;;;;;;;32.30;40.41;97028.13;4186380;28;5673;-73
2023/08/23 11:51:51;;;;;;;;;;;;;;;32.30;40.04;97019.91;4190595;28;5683;-74
2023/08/23 11:53:55;;;;;;;;;;;;;;;32.30;40.02;97022.66;4199615;28;5792;-75
2023/08/23 11:55:58;;;;;;;;;;;;;;;32.32;40.25;97020.41;4194909;28;5635;-73
2023/08/23 11:58:04;;;;;;;;;;;;;;;32.34;40.29;97017.31;4198198;28;5664;-73
2023/08/23 12:00:08;;;;;;;;;;;;;;;32.34;40.07;97015.38;4193614;28;5792;-66
2023/08/23 12:02:12;;;;;;;;;;;;;;;32.36;40.30;97020.53;4193676;28;5640;-68
2023/08/23 12:04:15;;;;;;;;;;;;;;;32.38;40.41;97013.59;4196905;28;5815;-71
2023/08/23 12:06:20;;;;;;;;;;;;;;;32.40;40.38;97013.28;4196286;28;5815;-72
2023/08/23 12:08:23;;;;;;;;;;;;;;;32.43;39.95;97007.94;4193558;28;5644;-74
2023/08/23 12:10:26;;;;;;;;;;;;;;;32.44;39.92;97006.00;4192139;28;5105;-74
2023/08/23 12:12:29;;;;;;;;;;;;;;;32.46;39.74;97009.22;4199550;28;5691;-72
2023/08/23 12:14:33;;;;;;;;;;;;;;;32.49;39.86;97013.22;4192295;28;5650;-73
2023/08/23 12:16:36;;;;;;;;;;;;;;;32.49;40.12;97002.28;4198892;28;5783;-72
2023/08/23 12:18:38;;;;;;;;;;;;;;;32.50;39.54;97004.69;4195894;28;5616;-72
2023/08/23 12:20:41;;;;;;;;;;;;;;;32.51;39.80;97006.31;4200829;28;5623;-71
2023/08/23 12:22:50;;;;;;;;;;;;;;;32.52;39.69;96998.91;4189202;28;5815;-72
2023/08/23 12:24:53;;;;;;;;;;;;;;;32.54;40.18;96999.38;4198358;28;5706;-72
2023/08/23 12:26:55;;;;;;;;;;;;;;;32.55;40.12;97000.97;4192428;28;5841;-72
2023/08/23 12:28:58;;;;;;;;;;;;;;;32.56;40.31;96997.91;4195638;28;5826;-72
2023/08/23 12:31:01;;;;;;;;;;;;;;;32.59;39.71;96985.47;4194611;28;5695;-72
2023/08/23 12:33:05;;;;;;;;;;;;;;;32.62;40.04;96993.03;4189251;28;5726;-70
2023/08/23 12:35:09;;;;;;;;;;;;;;;32.63;40.08;96991.91;4193328;28;5640;-73
2023/08/23 12:37:12;;;;;;;;;;;;;;;32.66;39.88;96988.50;4195680;28;5644;-71
2023/08/23 12:39:17;;;;;;;;;;;;;;;32.68;39.52;96994.44;4194987;28;5648;-66
2023/08/23 12:41:20;;;;;;;;;;;;;;;32.69;39.64;96985.09;4196725;28;5691;-72
2023/08/23 12:43:23;;;;;;;;;;;;;;;32.70;39.90;96986.69;4186941;28;5654;-75
2023/08/23 12:45:26;;;;;;;;;;;;;;;32.70;40.07;96975.75;4195091;28;5705;-72
2023/08/23 12:47:29;;;;;;;;;;;;;;;32.74;39.68;96979.44;4195327;28;5675;-73
2023/08/23 12:49:32;;;;;;;;;;;;;;;32.74;39.79;96982.19;4193231;28;6329;-74
2023/08/23 12:51:34;;;;;;;;;;;;;;;32.75;39.82;96975.59;4192425;28;5726;-73
2023/08/23 12:53:37;;;;;;;;;;;;;;;32.75;39.68;96981.06;4193477;28;5692;-75
2023/08/23 12:55:43;;;;;;;;;;;;;;;32.76;39.63;96974.44;4198165;28;5624;-75
2023/08/23 12:57:46;;;;;;;;;;;;;;;32.78;39.56;96971.38;4192538;28;5624;-71
2023/08/23 12:59:48;;;;;;;;;;;;;;;32.77;39.21;96967.84;4178795;28;5741;-73
2023/08/23 13:01:51;;;;;;;;;;;;;;;32.79;39.00;96968.28;4199606;28;5624;-73
2023/08/23 13:03:54;;;;;;;;;;;;;;;32.81;38.75;96966.03;4193569;28;5243;-70
2023/08/23 13:05:57;;;;;;;;;;;;;;;32.82;38.64;96966.81;4200562;28;5623;-74
2023/08/23 13:08:00;;;;;;;;;;;;;;;32.84;38.75;96959.09;4201280;28;5647;-74
2023/08/23 13:10:03;;;;;;;;;;;;;;;32.86;38.01;96963.13;4200917;28;5838;-74
2023/08/23 13:12:08;;;;;;;;;;;;;;;32.87;38.28;96963.94;4191864;28;5890;-73
2023/08/23 13:14:11;;;;;;;;;;;;;;;32.88;37.76;96960.06;4192005;28;5686;-71
2023/08/23 13:16:14;;;;;;;;;;;;;;;32.87;37.96;96953.78;4197086;28;5725;-84
2023/08/23 13:18:16;;;;;;;;;;;;;;;32.88;37.33;96960.84;4189329;28;5745;-79
2023/08/23 13:20:20;;;;;;;;;;;;;;;32.88;37.50;96954.59;4201714;28;5653;-75
2023/08/23 13:22:24;;;;;;;;;;;;;;;32.90;37.55;96955.84;4191603;28;7241;-75
2023/08/23 13:24:27;;;;;;;;;;;;;;;32.93;36.96;96957.09;4199259;28;5683;-80
2023/08/23 13:26:29;;;;;;;;;;;;;;;32.94;36.34;96953.22;4195217;28;5647;-66
2023/08/23 13:28:33;;;;;;;;;;;;;;;32.96;36.54;96962.75;4201297;28;5835;-66
2023/08/23 13:30:36;;;;;;;;;;;;;;;32.98;36.34;96954.97;4202899;28;5640;-67
2023/08/23 13:32:38;;;;;;;;;;;;;;;32.99;36.00;96950.31;4187444;28;6244;-67
2023/08/23 13:34:41;;;;;;;;;;;;;;;33.00;36.38;96947.22;4186268;28;5639;-67
2023/08/23 13:36:44;;;;;;;;;;;;;;;33.03;35.61;96950.44;4191319;28;5829;-68
2023/08/23 13:38:46;;;;;;;;;;;;;;;33.03;35.96;96950.44;4199132;28;5615;-68
2023/08/23 13:40:50;;;;;;;;;;;;;;;33.03;35.75;96944.94;4195496;28;5829;-68
2023/08/23 13:42:53;;;;;;;;;;;;;;;33.04;35.57;96943.81;4206337;28;5644;-69
2023/08/23 13:45:18;;;;;;;;;;;;;;;33.03;35.65;96934.00;4189024;28;5830;-70
2023/08/23 13:47:20;;;;;;;;;;;;;;;33.03;35.52;96939.47;4197851;28;5740;-70
2023/08/23 13:49:23;;;;;;;;;;;;;;;33.03;35.68;96939.47;4190575;28;5745;-69
2023/08/23 13:51:26;;;;;;;;;;;;;;;33.03;35.75;96931.25;4200842;28;5117;-71
2023/08/23 13:53:29;;;;;;;;;;;;;;;33.03;35.36;96939.47;4193507;28;5890;-69
2023/08/23 13:55:31;;;;;;;;;;;;;;;33.03;35.61;96934.81;4200942;28;7692;-69
2023/08/23 13:57:34;;;;;;;;;;;;;;;33.04;35.41;96930.13;4194762;28;5687;-69
2023/08/23 13:59:37;;;;;;;;;;;;;;;33.05;35.42;96928.97;4193528;28;5799;-70
2023/08/23 14:01:41;;;;;;;;;;;;;;;33.04;35.53;96925.44;4201950;28;7672;-70
2023/08/23 14:03:44;;;;;;;;;;;;;;;33.04;35.46;96927.38;4203190;28;5878;-69
2023/08/23 14:05:47;;;;;;;;;;;;;;;33.04;35.55;96919.16;4197675;28;5198;-70
2023/08/23 14:07:50;;;;;;;;;;;;;;;33.06;35.26;96922.38;4201457;28;5718;-70
2023/08/23 14:09:54;;;;;;;;;;;;;;;33.08;34.89;96925.59;4198585;28;5635;-68
2023/08/23 14:12:05;;;;;;;;;;;;;;;33.11;34.71;96914.75;4198770;28;6408;-66
2023/08/23 14:14:08;;;;;;;;;;;;;;;33.14;34.71;96918.75;4176522;28;5808;-66
2023/08/23 14:16:11;;;;;;;;;;;;;;;33.16;34.64;96911.81;4198656;28;6431;-64
2023/08/23 14:18:14;;;;;;;;;;;;;;;33.18;34.28;96915.00;4194315;28;5796;-65
2023/08/23 14:20:17;;;;;;;;;;;;;;;33.19;33.94;96911.16;4190288;28;5639;-65
2023/08/23 14:22:20;;;;;;;;;;;;;;;33.22;34.07;96912.41;4194290;28;5620;-65
2023/08/23 14:24:23;;;;;;;;;;;;;;;33.22;34.22;96902.25;4184976;28;5742;-73
2023/08/23 14:26:26;;;;;;;;;;;;;;;33.24;34.40;96901.91;4194446;28;5768;-72
2023/08/23 14:28:29;;;;;;;;;;;;;;;33.29;33.89;96896.22;4194852;28;5253;-72
2023/08/23 14:30:32;;;;;;;;;;;;;;;33.32;34.23;96900.22;4202199;28;5639;-76
2023/08/23 14:32:35;;;;;;;;;;;;;;;33.33;34.23;96899.88;4195634;28;5775;-78
2023/08/23 14:34:40;;;;;;;;;;;;;;;33.34;33.74;96896.00;4194552;28;5783;-78
2023/08/23 14:36:43;;;;;;;;;;;;;;;33.35;34.23;96903.13;4196082;28;5635;-78
2023/08/23 14:38:46;;;;;;;;;;;;;;;33.37;33.29;96900.84;4196365;28;6038;-78
2023/08/23 14:40:49;;;;;;;;;;;;;;;33.44;33.42;96903.84;4202998;28;5624;-78
2023/08/23 14:42:53;;;;;;;;;;;;;;;33.47;33.18;96905.09;4195819;28;5655;-77
2023/08/23 14:44:55;;;;;;;;;;;;;;;33.50;33.10;96904.41;4196666;28;6229;-76
2023/08/23 14:46:58;;;;;;;;;;;;;;;33.50;33.44;96896.97;4203305;28;5642;-77
2023/08/23 14:49:01;;;;;;;;;;;;;;;33.52;32.90;96902.13;4201915;28;5778;-77
2023/08/23 14:51:06;;;;;;;;;;;;;;;33.50;33.46;96902.47;4201054;28;6446;-77
2023/08/23 14:53:09;;;;;;;;;;;;;;;33.51;32.61;96901.31;4172849;28;5652;-77
2023/08/23 14:55:12;;;;;;;;;;;;;;;33.52;32.38;96899.38;4202530;28;5631;-78
2023/08/23 14:57:15;;;;;;;;;;;;;;;33.54;32.31;96897.94;4199035;28;7436;-77
2023/08/23 14:59:18;;;;;;;;;;;;;;;33.53;32.33;96892.78;4197636;28;5754;-74
2023/08/23 15:01:21;;;;;;;;;;;;;;;33.51;32.07;96890.34;4199149;28;5859;-76
2023/08/23 15:03:24;;;;;;;;;;;;;;;33.49;32.21;96887.16;4199299;28;5942;-76
2023/08/23 15:05:27;;;;;;;;;;;;;;;33.49;31.62;96898.13;4196239;28;6943;-75
2023/08/23 15:07:32;;;;;;;;;;;;;;;33.47;31.96;96889.44;4192190;28;5836;-75
2023/08/23 15:09:35;;;;;;;;;;;;;;;33.48;30.99;96885.56;4197131;28;5771;-74
2023/08/23 15:11:38;;;;;;;;;;;;;;;33.49;31.13;96884.41;4194451;28;5761;-75
2023/08/23 15:13:40;;;;;;;;;;;;;;;33.53;30.32;96887.31;4197914;28;5635;-75
2023/08/23 15:15:43;;;;;;;;;;;;;;;33.54;30.18;96894.38;4195276;28;5090;-74
2023/08/23 15:17:46;;;;;;;;;;;;;;;33.55;29.81;96885.81;4192674;28;5751;-75
2023/08/23 15:19:50;;;;;;;;;;;;;;;33.56;29.94;96884.69;4196164;28;5643;-75
2023/08/23 15:21:54;;;;;;;;;;;;;;;33.55;30.27;96891.31;4191378;28;5797;-75
2023/08/23 15:23:59;;;;;;;;;;;;;;;33.53;29.32;96884.56;4187441;28;5863;-75
2023/08/23 15:26:02;;;;;;;;;;;;;;;33.55;29.35;96883.06;4201868;28;5651;-75
2023/08/23 15:28:05;;;;;;;;;;;;;;;33.57;28.92;96880.78;4196255;28;5742;-75
2023/08/23 15:30:08;;;;;;;;;;;;;;;33.58;28.78;96874.16;4198023;28;5868;-75
2023/08/23 15:32:15;;;;;;;;;;;;;;;33.61;28.79;96874.63;4195906;28;5623;-75
2023/08/23 15:34:19;;;;;;;;;;;;;;;33.63;28.86;96870.41;4199501;28;5755;-75
2023/08/23 15:36:21;;;;;;;;;;;;;;;33.67;28.18;96878.75;4198281;28;5624;-75
2023/08/23 15:38:24;;;;;;;;;;;;;;;33.68;28.69;96870.19;4195566;28;5640;-75
2023/08/23 15:40:28;;;;;;;;;;;;;;;33.67;28.12;96867.78;4196310;28;5643;-75
2023/08/23 15:42:30;;;;;;;;;;;;;;;33.66;28.49;96863.44;4200883;28;5643;-75
2023/08/23 15:44:33;;;;;;;;;;;;;;;33.64;28.18;96871.19;4193998;28;7683;-75
2023/08/23 15:46:36;;;;;;;;;;;;;;;33.65;27.75;96870.09;4195357;28;5686;-75
2023/08/23 15:48:39;;;;;;;;;;;;;;;33.68;27.39;96867.44;4200438;28;5699;-75
2023/08/23 15:50:42;;;;;;;;;;;;;;;33.71;27.16;96866.75;4201318;28;5906;-75
2023/08/23 15:52:45;;;;;;;;;;;;;;;33.72;27.13;96868.34;4197857;28;5806;-76
2023/08/23 15:54:50;;;;;;;;;;;;;;;33.73;27.70;96863.66;4200120;28;5707;-76
2023/08/23 15:56:54;;;;;;;;;;;;;;;33.71;27.40;96872.25;4196440;28;5663;-75
2023/08/23 15:58:57;;;;;;;;;;;;;;;33.69;27.66;96873.72;4197585;28;5700;-76
2023/08/23 16:01:00;;;;;;;;;;;;;;;33.67;26.98;96865.84;4201400;28;5627;-75
2023/08/23 16:03:03;;;;;;;;;;;;;;;33.68;27.36;96867.44;4197381;28;5834;-75
2023/08/23 16:05:06;;;;;;;;;;;;;;;33.70;26.62;96864.34;4196682;28;7036;-75
2023/08/23 16:07:09;;;;;;;;;;;;;;;33.72;26.51;96867.56;4197569;28;6487;-75
2023/08/23 16:09:12;;;;;;;;;;;;;;;33.72;26.68;96864.81;4187747;28;5647;-74
2023/08/23 16:11:15;;;;;;;;;;;;;;;33.70;26.68;96859.69;4194957;28;5636;-75